sensor_id;sensor_type;location;lat;lon;timestamp;P1;durP1;ratioP1;P2;durP2;ratioP2
14923;SDS011;7554;43.600;1.480;2023-02-01T00:01:05;8.00;;;5.30;;
14923;SDS011;7554;43.600;1.480;2023-02-01T00:03:33;7.23;;;5.17;;
14923;SDS011;7554;43.600;1.480;2023-02-01T00:06:00;9.03;;;6.47;;
14923;SDS011;7554;43.600;1.480;2023-02-01T00:08:28;9.57;;;5.83;;
14923;SDS011;7554;43.600;1.480;2023-02-01T00:10:59;7.47;;;6.07;;
14923;SDS011;7554;43.600;1.480;2023-02-01T00:13:29;9.63;;;5.90;;
14923;SDS011;7554;43.600;1.480;2023-02-01T00:16:07;8.73;;;6.13;;
14923;SDS011;7554;43.600;1.480;2023-02-01T00:18:35;9.53;;;6.17;;
14923;SDS011;7554;43.600;1.480;2023-02-01T00:21:03;9.53;;;6.00;;
14923;SDS011;7554;43.600;1.480;2023-02-01T00:23:31;10.20;;;6.87;;
14923;SDS011;7554;43.600;1.480;2023-02-01T00:26:00;8.83;;;6.03;;
14923;SDS011;7554;43.600;1.480;2023-02-01T00:28:29;8.73;;;6.57;;
14923;SDS011;7554;43.600;1.480;2023-02-01T00:30:57;10.43;;;6.47;;
14923;SDS011;7554;43.600;1.480;2023-02-01T00:33:25;12.07;;;6.83;;
14923;SDS011;7554;43.600;1.480;2023-02-01T00:35:55;10.53;;;7.23;;
14923;SDS011;7554;43.600;1.480;2023-02-01T00:38:23;9.80;;;6.40;;
14923;SDS011;7554;43.600;1.480;2023-02-01T00:40:51;9.67;;;7.10;;
14923;SDS011;7554;43.600;1.480;2023-02-01T00:43:18;11.63;;;7.60;;
14923;SDS011;7554;43.600;1.480;2023-02-01T00:45:47;11.50;;;7.60;;
14923;SDS011;7554;43.600;1.480;2023-02-01T00:48:15;12.20;;;7.63;;
14923;SDS011;7554;43.600;1.480;2023-02-01T00:50:42;9.90;;;7.50;;
14923;SDS011;7554;43.600;1.480;2023-02-01T00:53:10;11.67;;;8.40;;
14923;SDS011;7554;43.600;1.480;2023-02-01T00:55:37;12.13;;;8.43;;
14923;SDS011;7554;43.600;1.480;2023-02-01T00:58:06;11.73;;;8.40;;
14923;SDS011;7554;43.600;1.480;2023-02-01T01:00:34;13.03;;;8.23;;
14923;SDS011;7554;43.600;1.480;2023-02-01T01:03:03;13.43;;;9.20;;
14923;SDS011;7554;43.600;1.480;2023-02-01T01:05:43;12.47;;;8.57;;
14923;SDS011;7554;43.600;1.480;2023-02-01T01:08:11;12.80;;;8.80;;
14923;SDS011;7554;43.600;1.480;2023-02-01T01:10:38;15.27;;;8.80;;
14923;SDS011;7554;43.600;1.480;2023-02-01T01:13:06;13.27;;;8.40;;
14923;SDS011;7554;43.600;1.480;2023-02-01T01:15:35;11.70;;;8.40;;
14923;SDS011;7554;43.600;1.480;2023-02-01T01:18:04;14.07;;;8.37;;
14923;SDS011;7554;43.600;1.480;2023-02-01T01:20:33;11.37;;;7.77;;
14923;SDS011;7554;43.600;1.480;2023-02-01T01:23:02;14.73;;;7.93;;
14923;SDS011;7554;43.600;1.480;2023-02-01T01:25:29;11.67;;;8.10;;
14923;SDS011;7554;43.600;1.480;2023-02-01T01:27:57;12.77;;;8.40;;
14923;SDS011;7554;43.600;1.480;2023-02-01T01:30:25;12.27;;;7.77;;
14923;SDS011;7554;43.600;1.480;2023-02-01T01:32:52;13.10;;;8.03;;
14923;SDS011;7554;43.600;1.480;2023-02-01T01:35:21;15.03;;;8.37;;
14923;SDS011;7554;43.600;1.480;2023-02-01T01:37:49;11.70;;;7.97;;
14923;SDS011;7554;43.600;1.480;2023-02-01T01:40:16;15.77;;;8.43;;
14923;SDS011;7554;43.600;1.480;2023-02-01T01:42:44;12.90;;;7.73;;
14923;SDS011;7554;43.600;1.480;2023-02-01T01:45:18;11.40;;;7.60;;
14923;SDS011;7554;43.600;1.480;2023-02-01T01:47:50;12.30;;;7.73;;
14923;SDS011;7554;43.600;1.480;2023-02-01T01:50:22;14.20;;;8.23;;
14923;SDS011;7554;43.600;1.480;2023-02-01T01:52:54;11.90;;;7.67;;
14923;SDS011;7554;43.600;1.480;2023-02-01T01:55:25;12.73;;;7.33;;
14923;SDS011;7554;43.600;1.480;2023-02-01T01:57:55;9.43;;;6.87;;
14923;SDS011;7554;43.600;1.480;2023-02-01T02:00:25;11.70;;;7.37;;
14923;SDS011;7554;43.600;1.480;2023-02-01T02:02:54;9.93;;;7.07;;
14923;SDS011;7554;43.600;1.480;2023-02-01T02:05:26;10.53;;;6.73;;
14923;SDS011;7554;43.600;1.480;2023-02-01T02:07:54;9.30;;;6.10;;
14923;SDS011;7554;43.600;1.480;2023-02-01T02:10:25;12.33;;;7.30;;
14923;SDS011;7554;43.600;1.480;2023-02-01T02:13:14;9.77;;;6.50;;
14923;SDS011;7554;43.600;1.480;2023-02-01T02:15:44;9.87;;;6.47;;
14923;SDS011;7554;43.600;1.480;2023-02-01T02:18:21;11.03;;;6.43;;
14923;SDS011;7554;43.600;1.480;2023-02-01T02:21:03;10.73;;;6.37;;
14923;SDS011;7554;43.600;1.480;2023-02-01T02:26:52;8.73;;;5.60;;
14923;SDS011;7554;43.600;1.480;2023-02-01T02:30:00;8.90;;;5.87;;
14923;SDS011;7554;43.600;1.480;2023-02-01T02:32:53;7.73;;;5.40;;
14923;SDS011;7554;43.600;1.480;2023-02-01T02:35:40;7.77;;;6.10;;
14923;SDS011;7554;43.600;1.480;2023-02-01T02:38:15;9.13;;;5.17;;
14923;SDS011;7554;43.600;1.480;2023-02-01T02:40:49;8.17;;;5.70;;
14923;SDS011;7554;43.600;1.480;2023-02-01T02:43:27;11.43;;;5.93;;
14923;SDS011;7554;43.600;1.480;2023-02-01T02:46:22;8.87;;;5.20;;
14923;SDS011;7554;43.600;1.480;2023-02-01T02:49:14;6.60;;;4.97;;
14923;SDS011;7554;43.600;1.480;2023-02-01T02:51:49;8.03;;;5.23;;
14923;SDS011;7554;43.600;1.480;2023-02-01T02:54:39;10.40;;;5.17;;
14923;SDS011;7554;43.600;1.480;2023-02-01T02:57:18;8.17;;;4.90;;
14923;SDS011;7554;43.600;1.480;2023-02-01T03:00:05;9.17;;;4.87;;
14923;SDS011;7554;43.600;1.480;2023-02-01T03:02:53;8.60;;;5.10;;
14923;SDS011;7554;43.600;1.480;2023-02-01T03:05:40;7.27;;;5.03;;
14923;SDS011;7554;43.600;1.480;2023-02-01T03:08:12;8.27;;;5.30;;
14923;SDS011;7554;43.600;1.480;2023-02-01T03:10:48;7.93;;;4.67;;
14923;SDS011;7554;43.600;1.480;2023-02-01T03:13:22;9.53;;;4.87;;
14923;SDS011;7554;43.600;1.480;2023-02-01T03:15:54;6.53;;;4.47;;
14923;SDS011;7554;43.600;1.480;2023-02-01T03:18:30;8.70;;;5.00;;
14923;SDS011;7554;43.600;1.480;2023-02-01T03:21:04;7.40;;;4.60;;
14923;SDS011;7554;43.600;1.480;2023-02-01T03:23:37;7.10;;;4.63;;
14923;SDS011;7554;43.600;1.480;2023-02-01T03:26:06;5.40;;;4.07;;
14923;SDS011;7554;43.600;1.480;2023-02-01T03:28:37;8.30;;;4.57;;
14923;SDS011;7554;43.600;1.480;2023-02-01T03:31:08;5.70;;;4.20;;
14923;SDS011;7554;43.600;1.480;2023-02-01T03:33:36;8.67;;;4.00;;
14923;SDS011;7554;43.600;1.480;2023-02-01T03:36:05;7.03;;;4.10;;
14923;SDS011;7554;43.600;1.480;2023-02-01T03:38:44;6.07;;;3.90;;
14923;SDS011;7554;43.600;1.480;2023-02-01T03:41:19;5.70;;;3.83;;
14923;SDS011;7554;43.600;1.480;2023-02-01T03:43:53;5.27;;;3.53;;
14923;SDS011;7554;43.600;1.480;2023-02-01T03:46:28;7.07;;;4.03;;
14923;SDS011;7554;43.600;1.480;2023-02-01T03:49:00;6.80;;;3.60;;
14923;SDS011;7554;43.600;1.480;2023-02-01T03:51:30;5.00;;;3.63;;
14923;SDS011;7554;43.600;1.480;2023-02-01T03:54:00;5.67;;;3.50;;
14923;SDS011;7554;43.600;1.480;2023-02-01T03:56:29;5.00;;;3.70;;
14923;SDS011;7554;43.600;1.480;2023-02-01T03:58:58;5.37;;;3.20;;
14923;SDS011;7554;43.600;1.480;2023-02-01T04:01:26;6.47;;;3.73;;
14923;SDS011;7554;43.600;1.480;2023-02-01T04:03:55;4.90;;;3.13;;
14923;SDS011;7554;43.600;1.480;2023-02-01T04:06:24;5.17;;;3.73;;
14923;SDS011;7554;43.600;1.480;2023-02-01T04:08:51;4.80;;;3.57;;
14923;SDS011;7554;43.600;1.480;2023-02-01T04:11:20;5.67;;;3.67;;
14923;SDS011;7554;43.600;1.480;2023-02-01T04:13:48;5.17;;;3.80;;
14923;SDS011;7554;43.600;1.480;2023-02-01T04:16:15;6.37;;;3.70;;
14923;SDS011;7554;43.600;1.480;2023-02-01T04:18:43;4.83;;;3.50;;
14923;SDS011;7554;43.600;1.480;2023-02-01T04:21:10;5.07;;;3.33;;
14923;SDS011;7554;43.600;1.480;2023-02-01T04:23:38;5.53;;;3.30;;
14923;SDS011;7554;43.600;1.480;2023-02-01T04:26:05;8.37;;;3.67;;
14923;SDS011;7554;43.600;1.480;2023-02-01T04:28:34;6.50;;;3.77;;
14923;SDS011;7554;43.600;1.480;2023-02-01T04:31:01;4.93;;;3.60;;
14923;SDS011;7554;43.600;1.480;2023-02-01T04:33:29;4.73;;;3.40;;
14923;SDS011;7554;43.600;1.480;2023-02-01T04:35:57;7.33;;;3.57;;
14923;SDS011;7554;43.600;1.480;2023-02-01T04:38:24;4.70;;;3.10;;
14923;SDS011;7554;43.600;1.480;2023-02-01T04:40:54;5.47;;;3.47;;
14923;SDS011;7554;43.600;1.480;2023-02-01T04:43:21;6.70;;;3.63;;
14923;SDS011;7554;43.600;1.480;2023-02-01T04:45:50;5.50;;;3.70;;
14923;SDS011;7554;43.600;1.480;2023-02-01T04:48:19;4.73;;;3.37;;
14923;SDS011;7554;43.600;1.480;2023-02-01T04:50:48;6.07;;;3.50;;
14923;SDS011;7554;43.600;1.480;2023-02-01T04:53:16;4.77;;;3.50;;
14923;SDS011;7554;43.600;1.480;2023-02-01T04:55:44;5.13;;;3.37;;
14923;SDS011;7554;43.600;1.480;2023-02-01T04:58:11;5.53;;;3.30;;
14923;SDS011;7554;43.600;1.480;2023-02-01T05:00:38;5.93;;;3.70;;
14923;SDS011;7554;43.600;1.480;2023-02-01T05:03:07;5.67;;;3.80;;
14923;SDS011;7554;43.600;1.480;2023-02-01T05:05:35;4.87;;;3.67;;
14923;SDS011;7554;43.600;1.480;2023-02-01T05:08:02;6.33;;;3.73;;
14923;SDS011;7554;43.600;1.480;2023-02-01T05:10:30;4.73;;;3.20;;
14923;SDS011;7554;43.600;1.480;2023-02-01T05:12:57;5.13;;;3.17;;
14923;SDS011;7554;43.600;1.480;2023-02-01T05:15:42;4.63;;;3.07;;
14923;SDS011;7554;43.600;1.480;2023-02-01T05:18:12;5.00;;;3.43;;
14923;SDS011;7554;43.600;1.480;2023-02-01T05:20:40;4.60;;;2.90;;
14923;SDS011;7554;43.600;1.480;2023-02-01T05:23:07;7.23;;;3.23;;
14923;SDS011;7554;43.600;1.480;2023-02-01T05:25:34;5.07;;;3.03;;
14923;SDS011;7554;43.600;1.480;2023-02-01T05:28:02;5.50;;;3.17;;
14923;SDS011;7554;43.600;1.480;2023-02-01T05:30:29;5.13;;;3.20;;
14923;SDS011;7554;43.600;1.480;2023-02-01T05:32:57;6.53;;;3.30;;
14923;SDS011;7554;43.600;1.480;2023-02-01T05:35:26;4.83;;;3.63;;
14923;SDS011;7554;43.600;1.480;2023-02-01T05:37:54;6.27;;;2.83;;
14923;SDS011;7554;43.600;1.480;2023-02-01T05:40:21;3.63;;;2.80;;
14923;SDS011;7554;43.600;1.480;2023-02-01T05:42:49;3.47;;;2.60;;
14923;SDS011;7554;43.600;1.480;2023-02-01T05:45:16;3.70;;;2.60;;
14923;SDS011;7554;43.600;1.480;2023-02-01T05:47:43;3.37;;;2.50;;
14923;SDS011;7554;43.600;1.480;2023-02-01T05:50:11;3.47;;;2.70;;
14923;SDS011;7554;43.600;1.480;2023-02-01T05:52:40;3.40;;;2.60;;
14923;SDS011;7554;43.600;1.480;2023-02-01T05:55:07;3.83;;;2.70;;
14923;SDS011;7554;43.600;1.480;2023-02-01T05:57:35;3.43;;;2.87;;
14923;SDS011;7554;43.600;1.480;2023-02-01T06:00:03;4.80;;;3.33;;
14923;SDS011;7554;43.600;1.480;2023-02-01T06:02:31;5.53;;;2.97;;
14923;SDS011;7554;43.600;1.480;2023-02-01T06:04:58;4.80;;;3.27;;
14923;SDS011;7554;43.600;1.480;2023-02-01T06:07:26;7.37;;;2.87;;
14923;SDS011;7554;43.600;1.480;2023-02-01T06:09:55;6.83;;;2.80;;
14923;SDS011;7554;43.600;1.480;2023-02-01T06:12:22;5.17;;;3.30;;
14923;SDS011;7554;43.600;1.480;2023-02-01T06:14:49;4.13;;;2.80;;
14923;SDS011;7554;43.600;1.480;2023-02-01T06:17:17;5.23;;;3.07;;
14923;SDS011;7554;43.600;1.480;2023-02-01T06:19:44;7.53;;;3.77;;
14923;SDS011;7554;43.600;1.480;2023-02-01T06:22:13;6.90;;;2.97;;
14923;SDS011;7554;43.600;1.480;2023-02-01T06:24:40;4.30;;;2.87;;
14923;SDS011;7554;43.600;1.480;2023-02-01T06:27:09;4.73;;;3.03;;
14923;SDS011;7554;43.600;1.480;2023-02-01T06:29:38;6.20;;;3.53;;
14923;SDS011;7554;43.600;1.480;2023-02-01T06:32:05;7.23;;;3.43;;
14923;SDS011;7554;43.600;1.480;2023-02-01T06:34:33;5.53;;;2.97;;
14923;SDS011;7554;43.600;1.480;2023-02-01T06:37:02;4.27;;;2.97;;
14923;SDS011;7554;43.600;1.480;2023-02-01T06:39:30;5.37;;;3.20;;
14923;SDS011;7554;43.600;1.480;2023-02-01T06:41:57;5.57;;;2.73;;
14923;SDS011;7554;43.600;1.480;2023-02-01T06:44:26;4.10;;;3.00;;
14923;SDS011;7554;43.600;1.480;2023-02-01T06:46:53;6.90;;;2.80;;
14923;SDS011;7554;43.600;1.480;2023-02-01T06:49:21;5.10;;;3.23;;
14923;SDS011;7554;43.600;1.480;2023-02-01T06:51:49;8.20;;;6.20;;
14923;SDS011;7554;43.600;1.480;2023-02-01T06:54:16;4.87;;;3.00;;
14923;SDS011;7554;43.600;1.480;2023-02-01T06:56:44;4.43;;;3.40;;
14923;SDS011;7554;43.600;1.480;2023-02-01T06:59:12;5.37;;;3.27;;
14923;SDS011;7554;43.600;1.480;2023-02-01T07:01:41;7.90;;;3.93;;
14923;SDS011;7554;43.600;1.480;2023-02-01T07:04:09;4.37;;;3.20;;
14923;SDS011;7554;43.600;1.480;2023-02-01T07:06:37;6.77;;;4.00;;
14923;SDS011;7554;43.600;1.480;2023-02-01T07:09:05;5.07;;;3.53;;
14923;SDS011;7554;43.600;1.480;2023-02-01T07:11:32;10.03;;;4.23;;
14923;SDS011;7554;43.600;1.480;2023-02-01T07:14:00;6.53;;;4.20;;
14923;SDS011;7554;43.600;1.480;2023-02-01T07:16:27;6.60;;;4.03;;
14923;SDS011;7554;43.600;1.480;2023-02-01T07:18:58;8.13;;;4.50;;
14923;SDS011;7554;43.600;1.480;2023-02-01T07:21:26;6.90;;;4.57;;
14923;SDS011;7554;43.600;1.480;2023-02-01T07:23:54;6.77;;;4.10;;
14923;SDS011;7554;43.600;1.480;2023-02-01T07:26:21;5.93;;;3.90;;
14923;SDS011;7554;43.600;1.480;2023-02-01T07:28:49;5.83;;;4.03;;
14923;SDS011;7554;43.600;1.480;2023-02-01T07:31:16;8.37;;;4.20;;
14923;SDS011;7554;43.600;1.480;2023-02-01T07:33:46;7.47;;;3.90;;
14923;SDS011;7554;43.600;1.480;2023-02-01T07:36:18;6.10;;;3.90;;
14923;SDS011;7554;43.600;1.480;2023-02-01T07:38:46;9.70;;;4.30;;
14923;SDS011;7554;43.600;1.480;2023-02-01T07:41:13;6.23;;;4.20;;
14923;SDS011;7554;43.600;1.480;2023-02-01T07:43:41;9.77;;;4.07;;
14923;SDS011;7554;43.600;1.480;2023-02-01T07:46:09;6.63;;;3.47;;
14923;SDS011;7554;43.600;1.480;2023-02-01T07:48:37;6.07;;;4.30;;
14923;SDS011;7554;43.600;1.480;2023-02-01T07:51:06;7.67;;;3.77;;
14923;SDS011;7554;43.600;1.480;2023-02-01T07:53:37;6.20;;;3.50;;
14923;SDS011;7554;43.600;1.480;2023-02-01T07:56:09;11.30;;;4.07;;
14923;SDS011;7554;43.600;1.480;2023-02-01T07:58:38;9.53;;;4.10;;
14923;SDS011;7554;43.600;1.480;2023-02-01T08:01:10;9.00;;;4.23;;
14923;SDS011;7554;43.600;1.480;2023-02-01T08:03:56;6.47;;;4.00;;
14923;SDS011;7554;43.600;1.480;2023-02-01T08:06:25;7.33;;;3.80;;
14923;SDS011;7554;43.600;1.480;2023-02-01T08:08:56;11.67;;;7.27;;
14923;SDS011;7554;43.600;1.480;2023-02-01T08:11:24;9.70;;;6.40;;
14923;SDS011;7554;43.600;1.480;2023-02-01T08:13:52;13.47;;;7.80;;
14923;SDS011;7554;43.600;1.480;2023-02-01T08:16:20;5.37;;;3.80;;
14923;SDS011;7554;43.600;1.480;2023-02-01T08:18:48;6.37;;;3.30;;
14923;SDS011;7554;43.600;1.480;2023-02-01T08:21:16;7.27;;;3.77;;
14923;SDS011;7554;43.600;1.480;2023-02-01T08:23:45;5.20;;;3.77;;
14923;SDS011;7554;43.600;1.480;2023-02-01T08:26:15;4.53;;;3.23;;
14923;SDS011;7554;43.600;1.480;2023-02-01T08:28:45;5.20;;;3.77;;
14923;SDS011;7554;43.600;1.480;2023-02-01T08:31:14;6.10;;;3.60;;
14923;SDS011;7554;43.600;1.480;2023-02-01T08:33:43;5.97;;;3.53;;
14923;SDS011;7554;43.600;1.480;2023-02-01T08:36:14;6.80;;;3.53;;
14923;SDS011;7554;43.600;1.480;2023-02-01T08:38:42;5.70;;;3.50;;
14923;SDS011;7554;43.600;1.480;2023-02-01T08:41:10;5.57;;;3.73;;
14923;SDS011;7554;43.600;1.480;2023-02-01T08:43:41;8.67;;;3.60;;
14923;SDS011;7554;43.600;1.480;2023-02-01T08:46:09;5.70;;;3.60;;
14923;SDS011;7554;43.600;1.480;2023-02-01T08:48:37;5.00;;;3.50;;
14923;SDS011;7554;43.600;1.480;2023-02-01T08:51:06;6.00;;;3.23;;
14923;SDS011;7554;43.600;1.480;2023-02-01T08:53:35;4.97;;;3.20;;
14923;SDS011;7554;43.600;1.480;2023-02-01T08:56:03;6.10;;;3.33;;
14923;SDS011;7554;43.600;1.480;2023-02-01T08:58:31;6.90;;;3.20;;
14923;SDS011;7554;43.600;1.480;2023-02-01T09:01:03;6.97;;;2.77;;
14923;SDS011;7554;43.600;1.480;2023-02-01T09:03:31;7.23;;;2.93;;
14923;SDS011;7554;43.600;1.480;2023-02-01T09:06:02;4.97;;;2.90;;
14923;SDS011;7554;43.600;1.480;2023-02-01T09:08:30;6.37;;;2.27;;
14923;SDS011;7554;43.600;1.480;2023-02-01T09:10:59;7.80;;;2.50;;
14923;SDS011;7554;43.600;1.480;2023-02-01T09:13:26;4.97;;;2.70;;
14923;SDS011;7554;43.600;1.480;2023-02-01T09:15:54;3.87;;;2.43;;
14923;SDS011;7554;43.600;1.480;2023-02-01T09:18:23;9.87;;;3.07;;
14923;SDS011;7554;43.600;1.480;2023-02-01T09:20:51;8.20;;;2.70;;
14923;SDS011;7554;43.600;1.480;2023-02-01T09:23:18;6.17;;;2.40;;
14923;SDS011;7554;43.600;1.480;2023-02-01T09:25:47;7.60;;;2.83;;
14923;SDS011;7554;43.600;1.480;2023-02-01T09:28:15;4.63;;;2.40;;
14923;SDS011;7554;43.600;1.480;2023-02-01T09:30:43;4.83;;;2.17;;
14923;SDS011;7554;43.600;1.480;2023-02-01T09:33:10;2.77;;;1.90;;
14923;SDS011;7554;43.600;1.480;2023-02-01T09:35:39;5.37;;;2.33;;
14923;SDS011;7554;43.600;1.480;2023-02-01T09:38:07;8.40;;;2.37;;
14923;SDS011;7554;43.600;1.480;2023-02-01T09:40:34;4.30;;;2.23;;
14923;SDS011;7554;43.600;1.480;2023-02-01T09:43:14;7.00;;;2.53;;
14923;SDS011;7554;43.600;1.480;2023-02-01T09:45:51;6.07;;;2.07;;
14923;SDS011;7554;43.600;1.480;2023-02-01T09:48:29;7.00;;;2.50;;
14923;SDS011;7554;43.600;1.480;2023-02-01T09:51:02;5.77;;;2.10;;
14923;SDS011;7554;43.600;1.480;2023-02-01T09:53:33;6.40;;;1.90;;
14923;SDS011;7554;43.600;1.480;2023-02-01T09:56:04;16.20;;;2.90;;
14923;SDS011;7554;43.600;1.480;2023-02-01T09:58:33;16.03;;;2.67;;
14923;SDS011;7554;43.600;1.480;2023-02-01T10:01:08;34.07;;;4.50;;
14923;SDS011;7554;43.600;1.480;2023-02-01T10:03:41;8.40;;;2.10;;
14923;SDS011;7554;43.600;1.480;2023-02-01T10:06:14;5.47;;;2.13;;
14923;SDS011;7554;43.600;1.480;2023-02-01T10:15:02;6.97;;;2.20;;
14923;SDS011;7554;43.600;1.480;2023-02-01T10:17:44;6.80;;;2.20;;
14923;SDS011;7554;43.600;1.480;2023-02-01T10:20:23;7.93;;;2.33;;
14923;SDS011;7554;43.600;1.480;2023-02-01T10:23:00;7.17;;;2.13;;
14923;SDS011;7554;43.600;1.480;2023-02-01T10:25:41;7.50;;;2.20;;
14923;SDS011;7554;43.600;1.480;2023-02-01T10:28:15;9.57;;;2.37;;
14923;SDS011;7554;43.600;1.480;2023-02-01T10:30:44;9.73;;;2.37;;
14923;SDS011;7554;43.600;1.480;2023-02-01T10:33:15;6.73;;;2.10;;
14923;SDS011;7554;43.600;1.480;2023-02-01T10:35:44;9.77;;;1.93;;
14923;SDS011;7554;43.600;1.480;2023-02-01T10:38:17;6.33;;;2.07;;
14923;SDS011;7554;43.600;1.480;2023-02-01T10:40:51;8.43;;;2.07;;
14923;SDS011;7554;43.600;1.480;2023-02-01T10:43:19;7.70;;;1.80;;
14923;SDS011;7554;43.600;1.480;2023-02-01T10:45:47;7.67;;;1.87;;
14923;SDS011;7554;43.600;1.480;2023-02-01T10:48:15;7.63;;;2.53;;
14923;SDS011;7554;43.600;1.480;2023-02-01T10:50:44;5.90;;;1.80;;
14923;SDS011;7554;43.600;1.480;2023-02-01T10:53:20;5.23;;;2.23;;
14923;SDS011;7554;43.600;1.480;2023-02-01T10:55:51;6.07;;;2.00;;
14923;SDS011;7554;43.600;1.480;2023-02-01T10:58:20;10.40;;;1.67;;
14923;SDS011;7554;43.600;1.480;2023-02-01T11:00:53;7.57;;;2.20;;
14923;SDS011;7554;43.600;1.480;2023-02-01T11:03:30;6.33;;;1.80;;
14923;SDS011;7554;43.600;1.480;2023-02-01T11:06:00;7.40;;;1.73;;
14923;SDS011;7554;43.600;1.480;2023-02-01T11:08:43;6.60;;;1.73;;
14923;SDS011;7554;43.600;1.480;2023-02-01T11:11:13;4.33;;;1.70;;
14923;SDS011;7554;43.600;1.480;2023-02-01T11:13:40;6.43;;;1.63;;
14923;SDS011;7554;43.600;1.480;2023-02-01T11:16:11;4.63;;;1.73;;
14923;SDS011;7554;43.600;1.480;2023-02-01T11:18:40;10.30;;;2.87;;
14923;SDS011;7554;43.600;1.480;2023-02-01T11:21:08;5.20;;;1.97;;
14923;SDS011;7554;43.600;1.480;2023-02-01T11:23:40;4.10;;;1.60;;
14923;SDS011;7554;43.600;1.480;2023-02-01T11:26:13;6.97;;;2.00;;
14923;SDS011;7554;43.600;1.480;2023-02-01T11:28:51;5.37;;;1.57;;
14923;SDS011;7554;43.600;1.480;2023-02-01T11:31:20;4.63;;;1.80;;
14923;SDS011;7554;43.600;1.480;2023-02-01T11:33:51;7.17;;;2.00;;
14923;SDS011;7554;43.600;1.480;2023-02-01T11:36:21;4.43;;;1.60;;
14923;SDS011;7554;43.600;1.480;2023-02-01T11:38:54;6.50;;;2.10;;
14923;SDS011;7554;43.600;1.480;2023-02-01T11:41:40;9.53;;;2.20;;
14923;SDS011;7554;43.600;1.480;2023-02-01T11:44:20;7.10;;;1.83;;
14923;SDS011;7554;43.600;1.480;2023-02-01T11:46:48;5.97;;;1.80;;
14923;SDS011;7554;43.600;1.480;2023-02-01T11:49:20;4.80;;;1.70;;
14923;SDS011;7554;43.600;1.480;2023-02-01T11:51:55;5.80;;;1.73;;
14923;SDS011;7554;43.600;1.480;2023-02-01T11:54:38;4.77;;;1.70;;
14923;SDS011;7554;43.600;1.480;2023-02-01T11:57:22;3.33;;;1.60;;
14923;SDS011;7554;43.600;1.480;2023-02-01T12:00:02;4.57;;;1.90;;
14923;SDS011;7554;43.600;1.480;2023-02-01T12:02:45;4.70;;;1.70;;
14923;SDS011;7554;43.600;1.480;2023-02-01T12:05:25;4.73;;;2.47;;
14923;SDS011;7554;43.600;1.480;2023-02-01T12:08:06;5.13;;;1.70;;
14923;SDS011;7554;43.600;1.480;2023-02-01T12:10:47;3.47;;;1.80;;
14923;SDS011;7554;43.600;1.480;2023-02-01T12:13:25;5.80;;;1.83;;
14923;SDS011;7554;43.600;1.480;2023-02-01T12:16:07;5.07;;;2.10;;
14923;SDS011;7554;43.600;1.480;2023-02-01T12:21:46;3.10;;;1.63;;
14923;SDS011;7554;43.600;1.480;2023-02-01T12:30:31;4.30;;;2.33;;
14923;SDS011;7554;43.600;1.480;2023-02-01T12:33:10;5.33;;;2.03;;
14923;SDS011;7554;43.600;1.480;2023-02-01T12:35:48;5.43;;;2.40;;
14923;SDS011;7554;43.600;1.480;2023-02-01T12:38:35;6.47;;;2.97;;
14923;SDS011;7554;43.600;1.480;2023-02-01T12:41:49;4.83;;;2.23;;
14923;SDS011;7554;43.600;1.480;2023-02-01T12:44:55;4.43;;;2.27;;
14923;SDS011;7554;43.600;1.480;2023-02-01T12:47:36;3.97;;;2.03;;
14923;SDS011;7554;43.600;1.480;2023-02-01T12:50:32;3.17;;;2.00;;
14923;SDS011;7554;43.600;1.480;2023-02-01T12:53:44;4.17;;;2.40;;
14923;SDS011;7554;43.600;1.480;2023-02-01T12:56:18;4.10;;;2.13;;
14923;SDS011;7554;43.600;1.480;2023-02-01T12:58:52;5.17;;;2.50;;
14923;SDS011;7554;43.600;1.480;2023-02-01T13:01:25;5.60;;;2.47;;
14923;SDS011;7554;43.600;1.480;2023-02-01T13:03:58;4.63;;;1.67;;
14923;SDS011;7554;43.600;1.480;2023-02-01T13:06:33;2.30;;;1.30;;
14923;SDS011;7554;43.600;1.480;2023-02-01T13:09:08;3.83;;;1.80;;
14923;SDS011;7554;43.600;1.480;2023-02-01T13:11:42;3.93;;;1.83;;
14923;SDS011;7554;43.600;1.480;2023-02-01T13:14:15;3.07;;;1.70;;
14923;SDS011;7554;43.600;1.480;2023-02-01T13:16:53;4.43;;;2.03;;
14923;SDS011;7554;43.600;1.480;2023-02-01T13:19:27;3.50;;;1.57;;
14923;SDS011;7554;43.600;1.480;2023-02-01T13:21:59;5.73;;;1.50;;
14923;SDS011;7554;43.600;1.480;2023-02-01T13:24:33;20.63;;;3.50;;
14923;SDS011;7554;43.600;1.480;2023-02-01T13:27:08;10.80;;;2.13;;
14923;SDS011;7554;43.600;1.480;2023-02-01T13:29:37;4.57;;;1.43;;
14923;SDS011;7554;43.600;1.480;2023-02-01T13:32:33;4.33;;;1.70;;
14923;SDS011;7554;43.600;1.480;2023-02-01T13:38:39;2.67;;;1.37;;
14923;SDS011;7554;43.600;1.480;2023-02-01T13:41:29;2.50;;;1.23;;
14923;SDS011;7554;43.600;1.480;2023-02-01T13:43:58;2.60;;;1.10;;
14923;SDS011;7554;43.600;1.480;2023-02-01T13:46:29;2.07;;;1.10;;
14923;SDS011;7554;43.600;1.480;2023-02-01T13:49:06;3.50;;;1.40;;
14923;SDS011;7554;43.600;1.480;2023-02-01T13:51:45;2.27;;;1.20;;
14923;SDS011;7554;43.600;1.480;2023-02-01T13:54:26;2.37;;;1.53;;
14923;SDS011;7554;43.600;1.480;2023-02-01T13:56:58;2.27;;;1.27;;
14923;SDS011;7554;43.600;1.480;2023-02-01T13:59:37;2.23;;;1.50;;
14923;SDS011;7554;43.600;1.480;2023-02-01T14:08:22;4.17;;;1.73;;
14923;SDS011;7554;43.600;1.480;2023-02-01T14:11:02;3.30;;;1.50;;
14923;SDS011;7554;43.600;1.480;2023-02-01T14:13:31;2.77;;;1.30;;
14923;SDS011;7554;43.600;1.480;2023-02-01T14:16:13;2.40;;;1.40;;
14923;SDS011;7554;43.600;1.480;2023-02-01T14:19:00;5.97;;;2.30;;
14923;SDS011;7554;43.600;1.480;2023-02-01T14:21:34;2.70;;;1.43;;
14923;SDS011;7554;43.600;1.480;2023-02-01T14:24:16;4.70;;;1.67;;
14923;SDS011;7554;43.600;1.480;2023-02-01T14:26:50;2.83;;;1.53;;
14923;SDS011;7554;43.600;1.480;2023-02-01T14:29:22;2.67;;;2.00;;
14923;SDS011;7554;43.600;1.480;2023-02-01T14:31:58;2.63;;;1.50;;
14923;SDS011;7554;43.600;1.480;2023-02-01T14:34:31;3.33;;;1.63;;
14923;SDS011;7554;43.600;1.480;2023-02-01T14:37:08;2.97;;;1.70;;
14923;SDS011;7554;43.600;1.480;2023-02-01T14:39:52;3.93;;;2.23;;
14923;SDS011;7554;43.600;1.480;2023-02-01T14:42:27;3.70;;;2.10;;
14923;SDS011;7554;43.600;1.480;2023-02-01T14:51:13;3.47;;;1.77;;
14923;SDS011;7554;43.600;1.480;2023-02-01T14:53:42;5.07;;;1.97;;
14923;SDS011;7554;43.600;1.480;2023-02-01T14:56:14;3.07;;;1.70;;
14923;SDS011;7554;43.600;1.480;2023-02-01T14:58:48;3.53;;;1.90;;
14923;SDS011;7554;43.600;1.480;2023-02-01T15:01:22;4.00;;;2.30;;
14923;SDS011;7554;43.600;1.480;2023-02-01T15:03:55;3.53;;;2.37;;
14923;SDS011;7554;43.600;1.480;2023-02-01T15:06:30;4.73;;;2.40;;
14923;SDS011;7554;43.600;1.480;2023-02-01T15:09:00;3.10;;;2.00;;
14923;SDS011;7554;43.600;1.480;2023-02-01T15:11:32;3.60;;;2.10;;
14923;SDS011;7554;43.600;1.480;2023-02-01T15:14:19;3.43;;;1.93;;
14923;SDS011;7554;43.600;1.480;2023-02-01T15:16:46;4.40;;;2.63;;
14923;SDS011;7554;43.600;1.480;2023-02-01T15:19:19;6.70;;;2.30;;
14923;SDS011;7554;43.600;1.480;2023-02-01T15:21:48;4.10;;;2.30;;
14923;SDS011;7554;43.600;1.480;2023-02-01T15:24:20;4.27;;;2.40;;
14923;SDS011;7554;43.600;1.480;2023-02-01T15:26:51;5.23;;;2.30;;
14923;SDS011;7554;43.600;1.480;2023-02-01T15:29:20;3.73;;;1.87;;
14923;SDS011;7554;43.600;1.480;2023-02-01T15:31:51;4.97;;;1.90;;
14923;SDS011;7554;43.600;1.480;2023-02-01T15:34:19;3.10;;;1.70;;
14923;SDS011;7554;43.600;1.480;2023-02-01T15:36:47;4.07;;;2.00;;
14923;SDS011;7554;43.600;1.480;2023-02-01T15:39:20;4.17;;;1.73;;
14923;SDS011;7554;43.600;1.480;2023-02-01T15:41:53;3.20;;;1.97;;
14923;SDS011;7554;43.600;1.480;2023-02-01T15:44:30;1.27;;;1.17;;
14923;SDS011;7554;43.600;1.480;2023-02-01T15:46:59;2.73;;;1.40;;
14923;SDS011;7554;43.600;1.480;2023-02-01T15:49:36;2.47;;;1.20;;
14923;SDS011;7554;43.600;1.480;2023-02-01T15:52:11;2.80;;;1.67;;
14923;SDS011;7554;43.600;1.480;2023-02-01T15:54:49;2.77;;;1.70;;
14923;SDS011;7554;43.600;1.480;2023-02-01T15:57:22;3.27;;;1.90;;
14923;SDS011;7554;43.600;1.480;2023-02-01T15:59:57;2.50;;;1.50;;
14923;SDS011;7554;43.600;1.480;2023-02-01T16:02:28;4.60;;;1.80;;
14923;SDS011;7554;43.600;1.480;2023-02-01T16:04:59;3.33;;;1.80;;